Time;durP1;ratioP1;P1;durP2;ratioP2;P2;SDS_P1;SDS_P2;PMS_P1;PMS_P2;Temp;Humidity;BMP_temperature;BMP_pressure;BME280_temperature;BME280_humidity;BME280_pressure;Samples;Min_cycle;Max_cycle;Signal;HPM_P1;HPM_P2
2021/04/24 00:00:16;;;;;;;13.93;4.72;;;103.30;2227.20;;;;;;5034638;28;20113;-70
2021/04/24 00:02:44;;;;;;;10.43;4.45;;;103.30;2227.20;;;;;;5034872;28;20029;-69
2021/04/24 00:05:22;;;;;;;10.25;4.90;;;103.20;2227.20;;;;;;5034540;28;20029;-70
2021/04/24 00:07:47;;;;;;;17.73;5.25;;;103.20;2227.20;;;;;;5034914;28;20032;-70
2021/04/24 00:10:15;;;;;;;9.32;4.82;;;103.10;2227.20;;;;;;5034687;28;20030;-72
2021/04/24 00:12:42;;;;;;;10.18;4.70;;;103.20;2227.20;;;;;;5034996;28;20153;-71
2021/04/24 00:15:10;;;;;;;13.02;5.38;;;103.20;2227.20;;;;;;5034444;28;20091;-70
2021/04/24 00:17:36;;;;;;;8.18;4.80;;;103.10;2227.20;;;;;;5034316;28;20032;-71
2021/04/24 00:20:04;;;;;;;9.48;4.75;;;103.10;2227.20;;;;;;5034619;28;20029;-71
2021/04/24 00:22:31;;;;;;;9.02;4.63;;;103.10;2227.20;;;;;;5034879;28;20025;-71
2021/04/24 00:24:57;;;;;;;7.90;4.63;;;103.10;2227.20;;;;;;5036357;28;20079;-70
2021/04/24 00:27:22;;;;;;;9.55;3.90;;;103.00;2227.20;;;;;;5038729;28;20028;-69
2021/04/24 00:29:48;;;;;;;15.65;4.75;;;103.00;2227.20;;;;;;5038184;28;20445;-70
2021/04/24 00:32:14;;;;;;;8.48;3.80;;;102.90;2227.20;;;;;;5038183;28;20070;-72
2021/04/24 00:34:40;;;;;;;10.02;4.18;;;102.90;2227.20;;;;;;5038839;28;20106;-72
2021/04/24 00:37:06;;;;;;;11.45;4.32;;;102.90;2227.20;;;;;;5038169;28;20044;-70
2021/04/24 00:39:31;;;;;;;10.70;5.70;;;102.80;2227.20;;;;;;5037696;28;20072;-71
2021/04/24 00:41:57;;;;;;;19.75;4.07;;;102.80;2227.20;;;;;;5020306;28;20033;-70
2021/04/24 00:44:23;;;;;;;11.50;5.15;;;102.80;2227.20;;;;;;5037777;28;20031;-71
2021/04/24 00:46:49;;;;;;;9.52;4.28;;;102.70;2227.20;;;;;;5038527;28;20030;-71
2021/04/24 00:49:15;;;;;;;13.10;4.78;;;102.70;2227.20;;;;;;5038142;28;20458;-71
2021/04/24 00:51:40;;;;;;;8.90;4.50;;;102.70;2227.20;;;;;;5037408;28;20029;-71
2021/04/24 00:54:07;;;;;;;11.40;4.97;;;102.60;2227.20;;;;;;5038066;28;20033;-71
2021/04/24 00:56:33;;;;;;;10.40;4.30;;;102.60;2227.20;;;;;;5038199;28;20373;-72
2021/04/24 00:59:00;;;;;;;8.73;4.43;;;102.60;2227.20;;;;;;5037553;28;20048;-70
2021/04/24 01:01:26;;;;;;;8.30;3.88;;;102.60;2227.20;;;;;;5038137;28;20458;-71
2021/04/24 01:03:52;;;;;;;15.02;4.78;;;102.60;2227.20;;;;;;5037929;28;20083;-71
2021/04/24 01:06:18;;;;;;;9.88;4.22;;;102.50;2227.20;;;;;;5037369;28;20025;-71
2021/04/24 01:08:44;;;;;;;7.70;4.45;;;102.50;2227.20;;;;;;5037483;28;20405;-71
2021/04/24 01:11:10;;;;;;;9.40;4.15;;;102.50;2227.20;;;;;;5037239;28;20030;-73
2021/04/24 01:13:36;;;;;;;10.18;5.13;;;102.40;2227.20;;;;;;5036773;28;20144;-72
2021/04/24 01:16:02;;;;;;;7.93;4.68;;;102.40;2227.20;;;;;;5037304;28;20120;-72
2021/04/24 01:18:28;;;;;;;13.32;4.35;;;102.40;2227.20;;;;;;5037449;28;20426;-71
2021/04/24 01:20:57;;;;;;;10.95;4.75;;;102.40;2227.20;;;;;;5037671;28;20029;-72
2021/04/24 01:23:23;;;;;;;;;;;102.40;2227.20;;;;;;5038450;28;20017;-68
2021/04/24 01:25:49;;;;;;;11.68;4.35;;;77.70;2227.20;;;;;;5037148;28;19909;-73
2021/04/24 01:28:14;;;;;;;9.65;4.43;;;77.60;2227.20;;;;;;5037154;28;20038;-72
2021/04/24 01:30:44;;;;;;;12.82;4.10;;;77.60;2227.20;;;;;;5037693;28;20035;-73
2021/04/24 01:33:12;;;;;;;9.52;5.07;;;77.60;2227.20;;;;;;5036666;28;20033;-71
2021/04/24 01:35:41;;;;;;;9.95;4.47;;;77.60;2227.20;;;;;;5035620;28;20424;-71
2021/04/24 01:38:08;;;;;;;18.27;5.43;;;77.60;2227.20;;;;;;5036495;28;20024;-73
2021/04/24 01:40:34;;;;;;;6.93;4.00;;;77.60;2227.20;;;;;;5035895;28;20037;-72
2021/04/24 01:43:05;;;;;;;12.55;4.78;;;77.60;2227.20;;;;;;5037213;28;20025;-72
2021/04/24 01:45:30;;;;;;;7.18;3.85;;;77.60;2227.20;;;;;;5036832;28;20132;-71
2021/04/24 01:47:57;;;;;;;11.80;5.28;;;77.60;2227.20;;;;;;5036595;28;20108;-72
2021/04/24 01:50:31;;;;;;;11.48;4.25;;;77.60;2227.20;;;;;;5037242;28;20029;-71
2021/04/24 01:52:59;;;;;;;8.85;4.38;;;77.60;2227.20;;;;;;5036466;28;20022;-72
2021/04/24 01:55:31;;;;;;;17.25;5.15;;;77.60;2227.20;;;;;;5036651;28;20084;-73
2021/04/24 01:57:58;;;;;;;9.82;3.90;;;77.60;2227.20;;;;;;5036604;28;20104;-72
2021/04/24 02:00:26;;;;;;;6.93;4.10;;;77.60;2227.20;;;;;;5036843;28;20071;-71
2021/04/24 02:02:52;;;;;;;9.27;4.32;;;77.60;2227.20;;;;;;5036511;28;20033;-71
2021/04/24 02:05:20;;;;;;;10.25;4.68;;;77.50;2227.20;;;;;;5036644;28;20025;-71
2021/04/24 02:07:57;;;;;;;9.32;4.65;;;77.50;2227.20;;;;;;5036420;28;20426;-70
2021/04/24 02:10:24;;;;;;;10.18;3.85;;;77.50;2227.20;;;;;;5036230;28;20347;-71
2021/04/24 02:12:50;;;;;;;15.45;4.35;;;77.50;2227.20;;;;;;5036295;28;20040;-71
2021/04/24 02:15:16;;;;;;;12.80;4.45;;;77.40;2227.20;;;;;;5036333;28;20025;-71
2021/04/24 02:17:43;;;;;;;10.60;4.28;;;77.40;2227.20;;;;;;5036935;28;20043;-71
2021/04/24 02:20:09;;;;;;;9.77;4.88;;;77.30;2227.20;;;;;;5036746;28;20381;-70
2021/04/24 02:22:35;;;;;;;12.90;4.63;;;77.30;2227.20;;;;;;5036445;28;20055;-71
2021/04/24 02:25:04;;;;;;;14.50;4.30;;;77.30;2227.20;;;;;;5036659;28;20044;-70
2021/04/24 02:27:29;;;;;;;9.90;4.10;;;77.30;2227.20;;;;;;5035865;28;20030;-71
2021/04/24 02:29:55;;;;;;;10.05;3.88;;;77.20;2227.20;;;;;;5036044;28;20091;-71
2021/04/24 02:32:30;;;;;;;12.55;3.97;;;77.20;2227.20;;;;;;5036177;28;20103;-71
2021/04/24 02:34:57;;;;;;;7.07;4.00;;;77.10;2227.20;;;;;;5036470;28;20064;-72
2021/04/24 02:37:23;;;;;;;10.38;4.22;;;77.10;2227.20;;;;;;5036079;28;20033;-72
2021/04/24 02:39:51;;;;;;;14.73;5.13;;;77.10;2227.20;;;;;;5035325;28;20332;-72
2021/04/24 02:42:20;;;;;;;16.20;4.70;;;77.00;2227.20;;;;;;5038370;28;20020;-71
2021/04/24 02:44:46;;;;;;;11.88;4.72;;;77.00;2227.20;;;;;;5038031;28;20025;-71
2021/04/24 02:47:12;;;;;;;19.02;10.02;;;76.90;2227.20;;;;;;5038167;28;20110;-70
2021/04/24 02:49:38;;;;;;;15.25;8.48;;;76.90;2227.20;;;;;;5038479;28;20080;-71
2021/04/24 02:52:05;;;;;;;21.92;13.93;;;76.80;2227.20;;;;;;5037915;28;20108;-70
2021/04/24 02:54:32;;;;;;;12.85;7.05;;;76.90;2227.20;;;;;;5038399;28;20055;-71
2021/04/24 02:56:58;;;;;;;20.10;11.57;;;76.90;2227.20;;;;;;5037971;28;20029;-71
2021/04/24 02:59:24;;;;;;;25.27;15.23;;;76.90;2227.20;;;;;;5037962;28;20411;-71
2021/04/24 03:01:51;;;;;;;18.48;13.25;;;76.90;2227.20;;;;;;5037937;28;20033;-70
2021/04/24 03:04:17;;;;;;;14.85;6.72;;;76.90;2227.20;;;;;;5037043;28;20485;-69
2021/04/24 03:06:43;;;;;;;16.58;7.13;;;76.90;2227.20;;;;;;5037577;28;20064;-71
2021/04/24 03:09:09;;;;;;;11.88;6.45;;;76.90;2227.20;;;;;;5037834;28;20021;-70
2021/04/24 03:11:36;;;;;;;11.75;6.80;;;76.80;2227.20;;;;;;5037203;28;20433;-70
2021/04/24 03:14:02;;;;;;;16.33;8.35;;;76.80;2227.20;;;;;;5037753;28;20021;-70
2021/04/24 03:16:28;;;;;;;20.05;10.40;;;76.80;2227.20;;;;;;5037800;28;20033;-70
2021/04/24 03:18:54;;;;;;;10.82;6.07;;;76.80;2227.20;;;;;;5037658;28;20083;-71
2021/04/24 03:21:25;;;;;;;10.75;4.50;;;76.80;2227.20;;;;;;5037618;28;20025;-72
2021/04/24 03:23:51;;;;;;;12.18;5.38;;;76.80;2227.20;;;;;;5037110;28;20026;-71
2021/04/24 03:26:17;;;;;;;12.20;6.43;;;76.80;2227.20;;;;;;5037556;28;20033;-71
2021/04/24 03:28:43;;;;;;;21.48;7.00;;;76.80;2227.20;;;;;;5037803;28;20029;-72
2021/04/24 03:31:10;;;;;;;15.43;6.32;;;76.80;2227.20;;;;;;5037174;28;20018;-69
2021/04/24 03:33:36;;;;;;;11.50;6.45;;;76.80;2227.20;;;;;;5033716;28;20084;-71
2021/04/24 03:36:02;;;;;;;14.88;7.30;;;76.80;2227.20;;;;;;5034900;28;20328;-73
2021/04/24 03:38:29;;;;;;;13.90;8.85;;;76.80;2227.20;;;;;;5034886;28;20406;-72
2021/04/24 03:40:55;;;;;;;27.60;12.73;;;52.10;2227.20;;;;;;5034580;28;20446;-70
2021/04/24 03:43:21;;;;;;;14.82;10.68;;;52.10;2227.20;;;;;;5017445;28;20361;-71
2021/04/24 03:45:47;;;;;;;18.65;10.30;;;52.00;2227.20;;;;;;5034292;28;20029;-70
2021/04/24 03:48:12;;;;;;;19.70;12.40;;;52.10;2227.20;;;;;;5035393;28;20333;-72
2021/04/24 03:50:38;;;;;;;23.90;12.07;;;52.00;2227.20;;;;;;5035041;28;20026;-72
2021/04/24 03:53:04;;;;;;;25.92;11.38;;;52.10;2227.20;;;;;;5034601;28;20423;-70
2021/04/24 03:55:30;;;;;;;12.65;8.00;;;52.10;2227.20;;;;;;5035274;28;20100;-72
2021/04/24 03:57:56;;;;;;;30.60;12.18;;;52.10;2227.20;;;;;;5035124;28;20037;-70
2021/04/24 04:00:28;;;;;;;16.58;8.55;;;76.80;2227.20;;;;;;5034464;28;20478;-71
2021/04/24 04:02:57;;;;;;;15.00;8.48;;;76.80;2227.20;;;;;;5035076;28;20037;-70
2021/04/24 04:05:26;;;;;;;11.38;6.10;;;76.80;2227.20;;;;;;5035139;28;20029;-72
2021/04/24 04:07:52;;;;;;;15.80;7.07;;;76.90;2227.20;;;;;;5034761;28;20403;-70
2021/04/24 04:10:21;;;;;;;18.70;8.95;;;76.90;2227.20;;;;;;5034378;28;20025;-71
2021/04/24 04:12:48;;;;;;;12.70;7.40;;;77.00;2227.20;;;;;;5034525;28;20342;-70
2021/04/24 04:15:16;;;;;;;17.70;7.35;;;77.00;2227.20;;;;;;5034094;28;20439;-70
2021/04/24 04:17:47;;;;;;;19.27;9.20;;;77.00;2227.20;;;;;;5035100;28;20022;-70
2021/04/24 04:20:13;;;;;;;22.88;10.02;;;77.00;2227.20;;;;;;5034766;28;20025;-71
2021/04/24 04:22:39;;;;;;;22.00;9.95;;;77.00;2227.20;;;;;;5034496;28;20052;-71
2021/04/24 04:25:05;;;;;;;14.93;7.38;;;77.10;2227.20;;;;;;5034710;28;20026;-69
2021/04/24 04:27:31;;;;;;;15.13;6.72;;;77.10;2227.20;;;;;;5034898;28;20067;-71
2021/04/24 04:29:57;;;;;;;14.75;7.05;;;77.20;2227.20;;;;;;5034023;28;20056;-71
2021/04/24 04:32:23;;;;;;;15.25;6.30;;;77.30;2227.20;;;;;;5034505;28;20075;-70
2021/04/24 04:34:49;;;;;;;16.85;6.97;;;77.30;2227.20;;;;;;5034335;28;20041;-72
2021/04/24 04:37:15;;;;;;;14.55;7.35;;;77.40;2227.20;;;;;;5034224;28;20030;-71
2021/04/24 04:39:41;;;;;;;16.27;7.28;;;77.40;2227.20;;;;;;5034560;28;20112;-70
2021/04/24 04:42:07;;;;;;;14.88;7.50;;;77.50;2227.20;;;;;;5034385;28;20506;-71
2021/04/24 04:44:34;;;;;;;20.50;9.00;;;77.60;2227.20;;;;;;5034005;28;20108;-71
2021/04/24 04:47:00;;;;;;;20.38;7.97;;;77.70;2227.20;;;;;;5016931;28;20037;-71
2021/04/24 04:49:27;;;;;;;12.25;6.40;;;102.40;2227.20;;;;;;5034175;28;20052;-70
2021/04/24 04:51:52;;;;;;;14.90;5.97;;;102.50;2227.20;;;;;;5034390;28;20411;-72
2021/04/24 04:54:18;;;;;;;17.83;7.75;;;102.60;2227.20;;;;;;5034457;28;20034;-71
2021/04/24 04:56:44;;;;;;;20.30;8.23;;;102.70;2227.20;;;;;;5034220;28;20029;-70
2021/04/24 04:59:10;;;;;;;18.83;7.22;;;102.70;2227.20;;;;;;5034359;28;20407;-72
2021/04/24 05:01:35;;;;;;;18.70;7.70;;;102.80;2227.20;;;;;;5034550;28;20036;-70
2021/04/24 05:04:01;;;;;;;18.40;7.32;;;102.90;2227.20;;;;;;5033883;28;20452;-70
2021/04/24 05:06:27;;;;;;;17.25;7.82;;;103.10;2227.20;;;;;;5034316;28;20040;-71
2021/04/24 05:08:53;;;;;;;18.85;7.20;;;103.20;2227.20;;;;;;5034621;28;20036;-72
2021/04/24 05:11:19;;;;;;;15.88;7.65;;;103.30;2227.20;;;;;;5034936;28;20083;-71
2021/04/24 05:13:45;;;;;;;20.15;6.75;;;128.00;2252.80;;;;;;5037597;28;20033;-71
2021/04/24 05:16:11;;;;;;;30.05;12.50;;;128.20;2252.80;;;;;;5037849;28;20037;-70
2021/04/24 05:18:37;;;;;;;39.13;14.93;;;128.30;2252.80;;;;;;5037477;28;20048;-71
2021/04/24 05:21:03;;;;;;;77.97;37.83;;;128.40;2252.80;;;;;;5037234;28;20525;-71
2021/04/24 05:23:29;;;;;;;35.28;18.00;;;128.50;2252.80;;;;;;5037871;28;20021;-71
2021/04/24 05:25:55;;;;;;;45.58;27.25;;;128.60;2252.80;;;;;;5037559;28;20040;-71
2021/04/24 05:28:21;;;;;;;56.05;33.00;;;128.80;2252.80;;;;;;5037241;28;20033;-71
2021/04/24 05:30:46;;;;;;;26.20;15.15;;;153.60;2252.80;;;;;;5036971;28;20541;-71
2021/04/24 05:33:12;;;;;;;28.85;17.23;;;153.70;2252.80;;;;;;5037718;28;20122;-71
2021/04/24 05:35:38;;;;;;;25.40;11.82;;;153.90;2252.80;;;;;;5037604;28;20436;-70
2021/04/24 05:38:04;;;;;;;21.63;12.30;;;154.00;2252.80;;;;;;5037167;28;20044;-71
2021/04/24 05:40:30;;;;;;;22.38;14.50;;;154.10;2252.80;;;;;;5037279;28;20406;-71
2021/04/24 05:42:56;;;;;;;12.27;6.63;;;154.30;2252.80;;;;;;5037578;28;20022;-72
2021/04/24 05:45:22;;;;;;;28.77;11.00;;;154.50;2252.80;;;;;;5036778;28;20029;-71
2021/04/24 05:47:49;;;;;;;25.90;10.40;;;179.30;2252.80;;;;;;5037144;28;20119;-72
2021/04/24 05:50:18;;;;;;;39.72;23.80;;;179.40;2252.80;;;;;;5036775;28;20087;-72
2021/04/24 05:52:44;;;;;;;21.45;10.85;;;179.60;2252.80;;;;;;5036830;28;20029;-72
2021/04/24 05:55:11;;;;;;;19.15;10.13;;;179.80;2252.80;;;;;;5036975;28;20033;-71
2021/04/24 05:57:38;;;;;;;19.92;10.73;;;180.00;2252.80;;;;;;5036854;28;20034;-70
2021/04/24 06:00:08;;;;;;;20.23;10.23;;;204.80;2252.80;;;;;;5036208;28;20421;-71
2021/04/24 06:02:35;;;;;;;18.67;9.90;;;204.90;2252.80;;;;;;5037227;28;20338;-71
2021/04/24 06:05:02;;;;;;;23.67;11.75;;;205.00;2252.80;;;;;;5036812;28;20108;-70
2021/04/24 06:07:28;;;;;;;26.83;10.10;;;205.10;2252.80;;;;;;5036370;28;20107;-70
2021/04/24 06:09:54;;;;;;;21.98;11.13;;;205.20;2201.60;;;;;;5036531;28;20422;-71
2021/04/24 06:12:20;;;;;;;23.48;10.50;;;205.30;2150.40;;;;;;5036711;28;20101;-72
2021/04/24 06:14:46;;;;;;;18.92;10.80;;;205.40;2150.40;;;;;;5036304;28;20029;-71
2021/04/24 06:17:12;;;;;;;17.67;9.10;;;205.50;2124.80;;;;;;5036506;28;20044;-73
2021/04/24 06:19:37;;;;;;;22.00;9.45;;;205.50;2048.00;;;;;;5036320;28;20112;-70
2021/04/24 06:22:03;;;;;;;16.67;8.93;;;205.60;2124.80;;;;;;5036107;28;20033;-71
2021/04/24 06:24:29;;;;;;;21.30;9.05;;;205.70;2048.00;;;;;;5036518;28;20051;-70
2021/04/24 06:26:55;;;;;;;18.27;10.10;;;205.70;2124.80;;;;;;5036541;28;20399;-71
2021/04/24 06:29:21;;;;;;;17.73;8.80;;;230.50;2124.80;;;;;;5036129;28;20104;-71
2021/04/24 06:31:47;;;;;;;17.00;8.80;;;230.50;2073.60;;;;;;5036418;28;20322;-71
2021/04/24 06:34:12;;;;;;;22.63;9.27;;;230.70;2022.40;;;;;;5035305;28;20103;-70
2021/04/24 06:36:38;;;;;;;16.25;8.40;;;230.80;2022.40;;;;;;5036107;28;20037;-70
2021/04/24 06:39:06;;;;;;;22.15;9.55;;;230.80;1996.80;;;;;;5036099;28;20029;-71
2021/04/24 06:41:33;;;;;;;22.20;8.77;;;230.80;1920.00;;;;;;5036106;28;20083;-72
2021/04/24 06:44:00;;;;;;;16.65;7.88;;;230.90;1894.40;;;;;;5036279;28;20029;-70
2021/04/24 06:46:25;;;;;;;16.42;7.80;;;230.90;1920.00;;;;;;5036099;28;20334;-72
2021/04/24 06:48:51;;;;;;;18.58;8.63;;;230.90;1868.80;;;;;;5035906;28;20037;-71
2021/04/24 06:51:17;;;;;;;17.95;8.18;;;230.90;1843.20;;;;;;5036010;28;20143;-71
2021/04/24 06:53:43;;;;;;;20.48;8.75;;;230.90;1843.20;;;;;;5035973;28;20040;-71
2021/04/24 06:56:08;;;;;;;19.27;8.77;;;231.00;1843.20;;;;;;5035611;28;20033;-72
2021/04/24 06:58:34;;;;;;;18.20;8.30;;;231.10;1843.20;;;;;;5035847;28;20334;-72
2021/04/24 07:01:00;;;;;;;16.77;8.90;;;231.30;1894.40;;;;;;5035636;28;20033;-70
2021/04/24 07:03:26;;;;;;;18.88;8.68;;;231.30;1920.00;;;;;;5035772;28;20516;-70
2021/04/24 07:05:52;;;;;;;21.08;8.90;;;256.00;1920.00;;;;;;5035974;28;20040;-72
2021/04/24 07:08:18;;;;;;;18.40;8.38;;;256.20;1920.00;;;;;;5035833;28;20041;-70
2021/04/24 07:10:44;;;;;;;21.17;8.55;;;256.40;1868.80;;;;;;5035082;28;20445;-71
2021/04/24 07:13:10;;;;;;;21.67;8.25;;;256.40;1843.20;;;;;;5035344;28;20029;-70
2021/04/24 07:15:36;;;;;;;19.00;9.23;;;256.50;1843.20;;;;;;5035705;28;20037;-72
2021/04/24 07:18:02;;;;;;;16.60;7.53;;;256.40;1894.40;;;;;;5034715;28;20489;-71
2021/04/24 07:20:28;;;;;;;17.33;8.32;;;256.40;1868.80;;;;;;5035228;28;20155;-72
2021/04/24 07:22:55;;;;;;;15.48;7.50;;;256.60;1894.40;;;;;;5035216;28;20358;-70
2021/04/24 07:25:21;;;;;;;17.10;8.50;;;256.70;1817.60;;;;;;5034995;28;20029;-71
2021/04/24 07:27:46;;;;;;;15.95;8.90;;;256.80;1894.40;;;;;;5035627;28;20033;-71
2021/04/24 07:30:13;;;;;;;14.93;8.55;;;256.90;1920.00;;;;;;5034687;28;20484;-71
2021/04/24 07:32:39;;;;;;;21.20;8.57;;;256.90;1817.60;;;;;;5033325;28;20113;-71
2021/04/24 07:35:07;;;;;;;16.75;8.82;;;281.60;1817.60;;;;;;5036635;28;20060;-70
2021/04/24 07:37:33;;;;;;;17.48;9.43;;;281.60;1945.60;;;;;;5037283;28;20038;-72
2021/04/24 07:39:59;;;;;;;17.55;7.78;;;281.60;1843.20;;;;;;5037351;28;20021;-71
2021/04/24 07:42:25;;;;;;;17.73;8.20;;;281.70;1817.60;;;;;;5037633;28;20323;-70
2021/04/24 07:44:51;;;;;;;18.70;7.85;;;281.80;1843.20;;;;;;5036780;28;20426;-71
2021/04/24 07:47:17;;;;;;;13.80;7.55;;;281.90;1766.40;;;;;;5037324;28;20488;-71
2021/04/24 07:49:43;;;;;;;15.48;7.38;;;282.00;1843.20;;;;;;5037274;28;20028;-72
2021/04/24 07:52:10;;;;;;;19.70;11.18;;;282.20;1715.20;;;;;;5036741;28;20029;-70
2021/04/24 07:54:43;;;;;;;23.27;7.72;;;282.10;1766.40;;;;;;5037544;28;20049;-72
2021/04/24 07:57:13;;;;;;;15.07;8.05;;;282.20;1664.00;;;;;;5037212;28;20123;-71
2021/04/24 07:59:39;;;;;;;17.33;7.65;;;282.20;1664.00;;;;;;5036610;28;20509;-71
2021/04/24 08:02:06;;;;;;;13.68;7.47;;;282.40;1664.00;;;;;;5037201;28;20112;-72
2021/04/24 08:04:32;;;;;;;17.73;7.25;;;282.50;1638.40;;;;;;5037425;28;20053;-71
2021/04/24 08:06:58;;;;;;;15.45;8.25;;;307.30;1689.60;;;;;;5036149;28;20110;-72
2021/04/24 08:09:26;;;;;;;12.68;6.45;;;307.30;1715.20;;;;;;5035985;28;20032;-71
2021/04/24 08:11:52;;;;;;;11.70;5.90;;;307.30;1766.40;;;;;;5035506;28;20017;-71
2021/04/24 08:14:19;;;;;;;17.27;6.97;;;307.40;1664.00;;;;;;5035552;28;20430;-70
2021/04/24 08:16:44;;;;;;;30.55;7.65;;;307.30;1715.20;;;;;;5035473;28;20108;-71
2021/04/24 08:19:10;;;;;;;12.98;6.40;;;307.50;1740.80;;;;;;5035484;28;20116;-70
2021/04/24 08:21:36;;;;;;;19.23;7.72;;;307.40;1664.00;;;;;;5035640;28;20021;-69
2021/04/24 08:24:02;;;;;;;16.15;6.57;;;307.50;1766.40;;;;;;5035788;28;20021;-72
2021/04/24 08:26:30;;;;;;;18.55;7.70;;;307.50;1689.60;;;;;;5034874;28;20037;-71
2021/04/24 08:28:57;;;;;;;10.10;6.13;;;307.60;1664.00;;;;;;5033094;28;20021;-70
2021/04/24 08:31:23;;;;;;;15.00;6.30;;;307.70;1689.60;;;;;;5017993;28;20487;-71
2021/04/24 08:33:49;;;;;;;15.98;7.22;;;307.60;1689.60;;;;;;5034218;28;20026;-70
2021/04/24 08:36:15;;;;;;;16.67;7.15;;;307.70;1587.20;;;;;;5034427;28;20136;-71
2021/04/24 08:38:41;;;;;;;12.18;6.05;;;307.70;1638.40;;;;;;5035169;28;20429;-70
2021/04/24 08:41:08;;;;;;;13.30;5.22;;;307.70;1664.00;;;;;;5035172;28;20053;-71
2021/04/24 08:43:38;;;;;;;17.45;6.25;;;308.00;1510.40;;;;;;5035425;28;20025;-70
2021/04/24 08:46:05;;;;;;;13.75;5.57;;;332.80;1536.00;;;;;;5037436;28;20032;-70
2021/04/24 08:48:31;;;;;;;9.93;5.40;;;332.90;1510.40;;;;;;5038683;28;20028;-70
2021/04/24 08:50:57;;;;;;;11.80;4.90;;;333.00;1536.00;;;;;;5038929;28;20385;-70
2021/04/24 08:53:23;;;;;;;15.07;6.30;;;333.00;1561.60;;;;;;5039253;28;20036;-71
2021/04/24 08:55:49;;;;;;;9.82;4.95;;;333.00;1536.00;;;;;;5038827;28;20033;-70
2021/04/24 08:58:16;;;;;;;14.70;6.00;;;333.00;1561.60;;;;;;5039236;28;20022;-70
2021/04/24 09:00:46;;;;;;;15.48;6.15;;;333.00;1510.40;;;;;;5038856;28;20307;-71
2021/04/24 09:03:16;;;;;;;11.65;6.95;;;333.00;1612.80;;;;;;5038798;28;20071;-71
2021/04/24 09:05:42;;;;;;;13.30;6.00;;;333.20;1510.40;;;;;;5038768;28;20422;-71
2021/04/24 09:08:10;;;;;;;9.32;5.20;;;333.20;1561.60;;;;;;5038731;28;20175;-70
2021/04/24 09:10:42;;;;;;;15.63;6.40;;;332.90;1510.40;;;;;;5036161;28;20021;-70
2021/04/24 09:13:09;;;;;;;10.77;6.25;;;333.10;1536.00;;;;;;5034724;28;20037;-70
2021/04/24 09:15:35;;;;;;;10.63;5.57;;;333.20;1510.40;;;;;;5035777;28;20326;-71
2021/04/24 09:18:14;;;;;;;11.35;5.38;;;333.00;1536.00;;;;;;5036726;28;20052;-70
2021/04/24 09:20:53;;;;;;;15.57;6.17;;;333.30;1484.80;;;;;;5036331;28;20032;-71
2021/04/24 09:23:28;;;;;;;20.55;6.78;;;333.50;1510.40;;;;;;5035440;28;20084;-71
2021/04/24 09:26:02;;;;;;;16.02;5.28;;;333.30;1484.80;;;;;;5033666;28;20022;-71
2021/04/24 09:28:41;;;;;;;10.02;5.03;;;358.40;1536.00;;;;;;5035897;28;20385;-72
2021/04/24 09:31:18;;;;;;;9.20;5.35;;;358.40;1484.80;;;;;;5034934;28;20025;-70
2021/04/24 09:33:46;;;;;;;20.27;5.80;;;358.60;1510.40;;;;;;5032055;28;20130;-72
2021/04/24 09:36:13;;;;;;;15.25;5.93;;;358.50;1510.40;;;;;;5033721;28;20029;-71
2021/04/24 09:38:42;;;;;;;10.00;4.97;;;358.50;1382.40;;;;;;5035929;28;20044;-72
2021/04/24 09:41:30;;;;;;;8.13;4.93;;;358.40;1433.60;;;;;;5037390;28;20036;-72
2021/04/24 09:44:03;;;;;;;12.85;5.03;;;358.40;1510.40;;;;;;5037505;28;20029;-71
2021/04/24 09:46:46;;;;;;;11.77;5.05;;;333.70;1459.20;;;;;;5036664;28;20033;-72
2021/04/24 09:49:30;;;;;;;13.38;5.63;;;358.50;1484.80;;;;;;5036919;28;20107;-73
2021/04/24 09:51:59;;;;;;;11.45;5.05;;;358.80;1459.20;;;;;;5036941;28;20385;-74
2021/04/24 09:54:35;;;;;;;9.70;5.15;;;358.90;1433.60;;;;;;5035661;28;20028;-73
2021/04/24 09:57:09;;;;;;;9.32;4.65;;;358.50;1382.40;;;;;;5032980;28;20087;-72
2021/04/24 10:00:01;;;;;;;9.35;4.78;;;358.60;1408.00;;;;;;5035510;28;20346;-70
2021/04/24 10:02:32;;;;;;;10.05;4.05;;;358.60;1408.00;;;;;;5035420;28;20033;-72
2021/04/24 10:05:07;;;;;;;8.98;4.22;;;358.90;1408.00;;;;;;5032931;28;20133;-71
2021/04/24 10:07:37;;;;;;;7.90;4.03;;;359.10;1408.00;;;;;;5036476;28;20044;-72
2021/04/24 10:10:05;;;;;;;7.30;4.10;;;358.90;1408.00;;;;;;5037116;28;20055;-71
2021/04/24 10:12:31;;;;;;;9.77;4.40;;;358.90;1356.80;;;;;;5036598;28;20038;-72
2021/04/24 10:14:57;;;;;;;9.25;3.92;;;358.80;1356.80;;;;;;5018594;28;20041;-71
2021/04/24 10:17:26;;;;;;;8.20;3.40;;;359.20;1433.60;;;;;;5036199;28;20041;-71
2021/04/24 10:19:52;;;;;;;11.15;4.72;;;384.00;1408.00;;;;;;5036520;28;20028;-73
2021/04/24 10:22:21;;;;;;;9.30;4.32;;;359.20;1382.40;;;;;;5036556;28;20397;-73
2021/04/24 10:24:47;;;;;;;7.82;3.63;;;384.00;1382.40;;;;;;5035500;28;20025;-71
2021/04/24 10:27:15;;;;;;;7.72;3.60;;;359.10;1433.60;;;;;;5035231;28;20055;-71
2021/04/24 10:29:42;;;;;;;7.28;3.83;;;358.80;1382.40;;;;;;5034708;28;20366;-73
2021/04/24 10:32:10;;;;;;;6.63;3.97;;;359.10;1382.40;;;;;;5031687;28;20076;-70
2021/04/24 10:34:48;;;;;;;7.90;4.15;;;359.20;1356.80;;;;;;5033798;28;20142;-71
2021/04/24 10:37:38;;;;;;;9.32;3.92;;;359.30;1356.80;;;;;;5034830;28;20124;-71
2021/04/24 10:40:35;;;;;;;4.60;3.15;;;384.10;1382.40;;;;;;5031965;28;20391;-70
2021/04/24 10:46:25;;;;;;;5.80;3.42;;;359.20;1356.80;;;;;;5139951;22;20107;-71
2021/04/24 10:49:10;;;;;;;8.70;4.15;;;359.30;1408.00;;;;;;5028128;28;20076;-73
2021/04/24 10:51:58;;;;;;;8.05;4.20;;;359.20;1408.00;;;;;;5034857;28;20041;-74
2021/04/24 10:54:26;;;;;;;6.43;3.63;;;359.10;1305.60;;;;;;5035298;28;20033;-71
2021/04/24 10:56:53;;;;;;;8.60;3.88;;;359.20;1331.20;;;;;;5034870;28;20036;-72
2021/04/24 10:59:25;;;;;;;11.90;4.47;;;359.30;1331.20;;;;;;5034454;28;20033;-70
2021/04/24 11:02:10;;;;;;;8.23;3.92;;;384.50;1356.80;;;;;;5033833;28;20052;-73
2021/04/24 11:04:47;;;;;;;8.63;3.60;;;384.50;1305.60;;;;;;5034026;28;20065;-73
2021/04/24 11:07:25;;;;;;;6.53;5.18;;;384.50;1280.00;;;;;;5034269;28;20116;-72
2021/04/24 11:10:13;;;;;;;7.60;4.22;;;384.30;1356.80;;;;;;5034278;28;20452;-73
2021/04/24 11:12:44;;;;;;;6.55;3.70;;;384.10;1331.20;;;;;;5035598;28;20073;-70
2021/04/24 11:15:12;;;;;;;9.10;4.40;;;384.30;1331.20;;;;;;5034803;28;20037;-71
2021/04/24 11:17:40;;;;;;;5.75;3.30;;;384.40;1331.20;;;;;;5035436;28;20029;-71
2021/04/24 11:20:08;;;;;;;8.98;4.03;;;384.80;1280.00;;;;;;5035103;28;20029;-71
2021/04/24 11:22:41;;;;;;;11.13;4.07;;;409.60;1280.00;;;;;;5034135;28;20329;-72
2021/04/24 11:25:16;;;;;;;8.35;3.42;;;409.90;1280.00;;;;;;5035659;28;20072;-72
2021/04/24 11:28:05;;;;;;;7.70;4.53;;;409.90;1356.80;;;;;;5035554;28;20037;-71
2021/04/24 11:30:49;;;;;;;7.63;3.67;;;409.90;1280.00;;;;;;5035183;28;20126;-70
2021/04/24 11:33:48;;;;;;;6.80;3.35;;;410.00;1254.40;;;;;;5034759;28;20026;-70
2021/04/24 11:36:22;;;;;;;5.32;3.13;;;410.20;1254.40;;;;;;4973660;28;20138;-70
2021/04/24 11:38:57;;;;;;;11.02;4.22;;;410.40;1254.40;;;;;;4972509;28;20053;-70
2021/04/24 11:41:27;;;;;;;8.30;3.85;;;410.30;1280.00;;;;;;4973445;28;20357;-72
2021/04/24 11:43:54;;;;;;;8.15;3.70;;;410.40;1254.40;;;;;;4973335;28;20062;-72
2021/04/24 11:46:40;;;;;;;6.80;3.25;;;410.50;1228.80;;;;;;4972971;28;20547;-72
2021/04/24 11:49:10;;;;;;;7.63;3.72;;;435.30;1254.40;;;;;;4972992;28;20042;-71
2021/04/24 11:51:54;;;;;;;7.45;3.40;;;435.30;1305.60;;;;;;4973340;28;20047;-71
2021/04/24 11:54:21;;;;;;;7.03;3.45;;;410.50;1280.00;;;;;;4973942;28;20120;-73
2021/04/24 11:56:49;;;;;;;11.05;4.47;;;410.40;1254.40;;;;;;4973673;28;20439;-71
2021/04/24 11:59:42;;;;;;;8.68;3.83;;;435.40;1280.00;;;;;;4973243;28;20055;-72
2021/04/24 12:02:28;;;;;;;7.28;3.88;;;435.40;1254.40;;;;;;4972153;28;20109;-73
2021/04/24 12:05:09;;;;;;;7.35;4.15;;;460.80;1228.80;;;;;;4970175;28;20364;-71
2021/04/24 12:07:42;;;;;;;10.15;4.43;;;461.60;1126.40;;;;;;4972728;28;20038;-72
2021/04/24 12:10:12;;;;;;;6.65;4.07;;;512.70;1100.80;;;;;;4973277;28;20066;-71
2021/04/24 12:12:40;;;;;;;10.10;4.60;;;563.40;1024.00;;;;;;5023860;28;20045;-72
2021/04/24 12:15:06;;;;;;;9.57;4.88;;;563.30;998.40;;;;;;5034313;28;20025;-71
2021/04/24 12:17:32;;;;;;;6.90;4.43;;;563.70;972.80;;;;;;5034231;28;20045;-72
2021/04/24 12:19:58;;;;;;;7.88;3.70;;;538.50;1049.60;;;;;;5034386;28;20025;-71
2021/04/24 12:22:24;;;;;;;9.27;4.55;;;512.90;998.40;;;;;;5037816;28;20120;-71